Metar z połowy godziny Komunikat METAR ze strony awiacja.imgw.pl Metar G30 EPGD METAR EPGD 162230Z 17005KT 150V210 7000 OVC028 M02/M03 Q1017 R11/290095 =